Time,TemperatureF,DewpointF,PressureIn,WindDirection,WindDirectionDegrees,WindSpeedMPH,WindSpeedGustMPH,Humidity,HourlyPrecipIn,Conditions,Clouds,dailyrainin,SoftwareType,DateUTC
2013-07-23 00:03:00,70.5,70.0,29.77,NNE,25,0.0,0.0,98,0.00,,,0.00,weatherlink.com 1.10,2013-07-23 04:03:00,
2013-07-23 00:18:00,70.5,70.0,29.77,NNE,25,0.0,0.0,99,0.01,,,0.01,weatherlink.com 1.10,2013-07-23 04:18:00,
2013-07-23 00:33:00,70.4,70.0,29.76,NNE,25,0.0,0.0,99,0.02,,,0.02,weatherlink.com 1.10,2013-07-23 04:33:00,
2013-07-23 00:48:00,70.4,70.0,29.76,NNE,25,0.0,0.0,99,0.03,,,0.03,weatherlink.com 1.10,2013-07-23 04:48:00,
2013-07-23 01:03:00,70.4,70.0,29.75,NNE,25,0.0,0.0,99,0.07,,,0.07,weatherlink.com 1.10,2013-07-23 05:03:00,
2013-07-23 01:18:00,70.4,70.0,29.74,NNE,25,0.0,0.0,99,0.07,,,0.08,weatherlink.com 1.10,2013-07-23 05:18:00,
2013-07-23 01:33:00,70.6,70.0,29.73,NNE,25,0.0,0.0,99,0.07,,,0.09,weatherlink.com 1.10,2013-07-23 05:33:00,
2013-07-23 01:49:00,70.6,70.0,29.72,NNE,25,0.0,0.0,99,0.06,,,0.09,weatherlink.com 1.10,2013-07-23 05:49:00,
2013-07-23 02:04:00,70.5,70.0,29.71,NNE,25,0.0,0.0,99,0.03,,,0.10,weatherlink.com 1.10,2013-07-23 06:04:00,
2013-07-23 02:19:00,70.3,70.0,29.71,NNE,25,0.0,0.0,99,0.05,,,0.13,weatherlink.com 1.10,2013-07-23 06:19:00,
2013-07-23 02:34:00,70.4,70.0,29.71,NNE,25,0.0,0.0,99,0.05,,,0.14,weatherlink.com 1.10,2013-07-23 06:34:00,
2013-07-23 02:49:00,70.4,70.0,29.70,NNE,25,0.0,0.0,99,0.05,,,0.14,weatherlink.com 1.10,2013-07-23 06:49:00,
2013-07-23 03:04:00,70.3,70.0,29.70,NNE,25,0.0,0.0,99,0.05,,,0.15,weatherlink.com 1.10,2013-07-23 07:04:00,
2013-07-23 05:11:00,68.9,69.0,29.64,NE,39,0.0,0.0,100,0.04,,,0.33,weatherlink.com 1.10,2013-07-23 09:11:00,
2013-07-23 05:19:00,68.8,69.0,29.64,NE,40,0.0,0.0,100,0.03,,,0.33,weatherlink.com 1.10,2013-07-23 09:19:00,
2013-07-23 05:34:00,68.6,69.0,29.64,NE,40,0.0,0.0,100,0.02,,,0.34,weatherlink.com 1.10,2013-07-23 09:34:00,
2013-07-23 05:50:00,68.5,69.0,29.64,NE,40,0.0,0.0,100,0.02,,,0.34,weatherlink.com 1.10,2013-07-23 09:50:00,
2013-07-23 06:05:00,68.5,69.0,29.63,NE,40,0.0,0.0,100,0.02,,,0.35,weatherlink.com 1.10,2013-07-23 10:05:00,
2013-07-23 06:20:00,68.5,69.0,29.63,NE,39,0.0,0.0,100,0.03,,,0.36,weatherlink.com 1.10,2013-07-23 10:20:00,
2013-07-23 06:35:00,68.6,69.0,29.62,NE,39,0.0,0.0,100,0.02,,,0.36,weatherlink.com 1.10,2013-07-23 10:35:00,
2013-07-23 06:50:00,68.7,69.0,29.62,NE,39,0.0,0.0,100,0.03,,,0.37,weatherlink.com 1.10,2013-07-23 10:50:00,
2013-07-23 07:05:00,69.0,69.0,29.61,NE,39,0.0,0.0,100,0.03,,,0.38,weatherlink.com 1.10,2013-07-23 11:05:00,
2013-07-23 07:20:00,69.2,69.0,29.61,NE,39,0.0,0.0,100,0.04,,,0.40,weatherlink.com 1.10,2013-07-23 11:20:00,
2013-07-23 07:35:00,69.4,69.0,29.60,NE,39,0.0,0.0,100,0.04,,,0.40,weatherlink.com 1.10,2013-07-23 11:35:00,
2013-07-23 07:50:00,69.7,70.0,29.59,NE,39,0.0,0.0,100,0.03,,,0.40,weatherlink.com 1.10,2013-07-23 11:50:00,
2013-07-23 08:05:00,69.8,70.0,29.58,NE,39,0.0,0.0,100,0.02,,,0.40,weatherlink.com 1.10,2013-07-23 12:05:00,
2013-07-23 08:20:00,70.0,70.0,29.57,North,8,0.0,0.0,100,0.01,,,0.41,weatherlink.com 1.10,2013-07-23 12:20:00,
2013-07-23 08:35:00,70.0,70.0,29.58,ESE,111,1.0,2.0,100,0.13,,,0.53,weatherlink.com 1.10,2013-07-23 12:35:00,
2013-07-23 08:50:00,69.9,70.0,29.58,NNE,20,2.0,3.0,100,0.20,,,0.60,weatherlink.com 1.10,2013-07-23 12:50:00,
2013-07-23 09:05:00,70.2,70.0,29.58,NNW,330,0.0,1.0,100,0.21,,,0.61,weatherlink.com 1.10,2013-07-23 13:05:00,
2013-07-23 09:20:00,70.5,70.0,29.58,NW,314,0.0,4.0,99,0.20,,,0.61,weatherlink.com 1.10,2013-07-23 13:20:00,
2013-07-23 09:35:00,70.2,70.0,29.57,East,79,3.0,3.0,98,0.06,,,0.61,weatherlink.com 1.10,2013-07-23 13:35:00,
2013-07-23 09:50:00,70.3,70.0,29.57,North,4,0.0,3.0,98,0.02,,,0.62,weatherlink.com 1.10,2013-07-23 13:50:00,
2013-07-23 10:05:00,70.4,70.0,29.58,North,3,1.0,4.0,97,0.01,,,0.62,weatherlink.com 1.10,2013-07-23 14:05:00,
2013-07-23 10:20:00,70.2,70.0,29.57,NNE,15,1.0,3.0,98,0.01,,,0.62,weatherlink.com 1.10,2013-07-23 14:20:00,
2013-07-23 10:35:00,70.5,70.0,29.58,North,349,2.0,3.0,97,0.01,,,0.62,weatherlink.com 1.10,2013-07-23 14:35:00,
2013-07-23 10:50:00,70.5,70.0,29.58,NE,55,0.0,4.0,97,0.00,,,0.62,weatherlink.com 1.10,2013-07-23 14:50:00,
2013-07-23 11:05:00,71.2,70.0,29.58,North,8,1.0,5.0,96,0.00,,,0.62,weatherlink.com 1.10,2013-07-23 15:05:00,
2013-07-23 11:20:00,71.3,70.0,29.58,North,354,0.0,5.0,95,0.00,,,0.62,weatherlink.com 1.10,2013-07-23 15:20:00,
2013-07-23 11:35:00,71.8,70.0,29.59,NW,314,0.0,0.0,95,0.00,,,0.62,weatherlink.com 1.10,2013-07-23 15:35:00,
2013-07-23 11:50:00,72.3,71.0,29.59,NW,315,0.0,0.0,95,0.00,,,0.62,weatherlink.com 1.10,2013-07-23 15:50:00,
2013-07-23 12:05:00,73.2,71.0,29.59,NW,315,0.0,0.0,92,0.00,,,0.62,weatherlink.com 1.10,2013-07-23 16:05:00,
2013-07-23 12:20:00,74.6,71.0,29.58,North,1,1.0,3.0,88,0.00,,,0.62,weatherlink.com 1.10,2013-07-23 16:20:00,
2013-07-23 12:35:00,75.2,71.0,29.58,North,349,0.0,3.0,87,0.00,,,0.62,weatherlink.com 1.10,2013-07-23 16:35:00,
2013-07-23 12:50:00,76.2,72.0,29.57,North,354,3.0,3.0,87,0.00,,,0.62,weatherlink.com 1.10,2013-07-23 16:50:00,
2013-07-23 13:05:00,77.0,71.0,29.57,NNW,340,0.0,5.0,82,0.00,,,0.62,weatherlink.com 1.10,2013-07-23 17:05:00,
2013-07-23 13:20:00,78.1,72.0,29.57,NNE,16,0.0,2.0,82,0.00,,,0.62,weatherlink.com 1.10,2013-07-23 17:20:00,
2013-07-23 13:35:00,78.1,73.0,29.56,NNE,18,2.0,3.0,84,0.00,,,0.62,weatherlink.com 1.10,2013-07-23 17:35:00,
2013-07-23 13:51:00,79.4,72.0,29.55,South,172,0.0,3.0,78,0.00,,,0.62,weatherlink.com 1.10,2013-07-23 17:51:00,
2013-07-23 14:06:00,80.6,73.0,29.54,SSW,211,0.0,4.0,77,0.00,,,0.62,weatherlink.com 1.10,2013-07-23 18:06:00,
2013-07-23 14:36:00,81.5,74.0,29.54,NE,49,2.0,3.0,78,0.00,,,0.62,weatherlink.com 1.10,2013-07-23 18:36:00,
2013-07-23 14:51:00,81.5,74.0,29.55,NE,40,0.0,0.0,78,0.00,,,0.62,weatherlink.com 1.10,2013-07-23 18:51:00,
2013-07-23 15:06:00,78.1,72.0,29.54,North,4,1.0,6.0,81,0.01,,,0.63,weatherlink.com 1.10,2013-07-23 19:06:00,
2013-07-23 15:21:00,78.7,72.0,29.54,North,4,0.0,3.0,81,0.01,,,0.63,weatherlink.com 1.10,2013-07-23 19:21:00,
2013-07-23 15:36:00,80.8,72.0,29.54,NE,41,0.0,3.0,75,0.01,,,0.63,weatherlink.com 1.10,2013-07-23 19:36:00,
2013-07-23 15:51:00,82.7,72.0,29.53,SE,129,1.0,3.0,71,0.01,,,0.63,weatherlink.com 1.10,2013-07-23 19:51:00,
2013-07-23 16:06:00,83.2,72.0,29.53,North,8,1.0,3.0,68,0.00,,,0.63,weatherlink.com 1.10,2013-07-23 20:06:00,
2013-07-23 16:21:00,83.6,72.0,29.53,NNW,333,2.0,3.0,69,0.00,,,0.63,weatherlink.com 1.10,2013-07-23 20:21:00,
2013-07-23 16:36:00,82.8,73.0,29.53,ENE,62,0.0,2.0,72,0.00,,,0.63,weatherlink.com 1.10,2013-07-23 20:36:00,
2013-07-23 16:51:00,83.4,73.0,29.53,NE,39,0.0,3.0,71,0.00,,,0.63,weatherlink.com 1.10,2013-07-23 20:51:00,
2013-07-23 17:06:00,82.9,73.0,29.52,NNE,15,0.0,1.0,73,0.00,,,0.63,weatherlink.com 1.10,2013-07-23 21:06:00,
2013-07-23 17:21:00,83.9,74.0,29.52,NNE,23,0.0,2.0,73,0.00,,,0.63,weatherlink.com 1.10,2013-07-23 21:21:00,
2013-07-23 17:36:00,85.2,73.0,29.52,North,8,0.0,0.0,67,0.00,,,0.63,weatherlink.com 1.10,2013-07-23 21:36:00,
2013-07-23 18:06:00,85.3,74.0,29.51,North,360,0.0,1.0,69,0.00,,,0.63,weatherlink.com 1.10,2013-07-23 22:06:00,
2013-07-23 18:21:00,85.0,75.0,29.51,North,4,0.0,0.0,73,0.00,,,0.63,weatherlink.com 1.10,2013-07-23 22:21:00,
2013-07-23 18:51:00,86.3,73.0,29.51,NW,307,1.0,2.0,64,0.00,,,0.63,weatherlink.com 1.10,2013-07-23 22:51:00,
2013-07-23 19:06:00,84.6,74.0,29.51,NNW,340,0.0,1.0,70,0.00,,,0.63,weatherlink.com 1.10,2013-07-23 23:06:00,
2013-07-23 19:51:00,81.2,73.0,29.53,SSE,160,0.0,0.0,77,0.00,,,0.63,weatherlink.com 1.10,2013-07-23 23:51:00,
2013-07-23 20:06:00,77.9,72.0,29.53,SSE,160,0.0,0.0,82,0.00,,,0.63,weatherlink.com 1.10,2013-07-24 00:06:00,
2013-07-23 20:21:00,75.3,72.0,29.54,SSE,160,0.0,0.0,88,0.00,,,0.63,weatherlink.com 1.10,2013-07-24 00:21:00,
2013-07-23 20:36:00,73.6,71.0,29.54,SSE,160,0.0,0.0,91,0.00,,,0.63,weatherlink.com 1.10,2013-07-24 00:36:00,
2013-07-23 20:51:00,72.3,70.0,29.53,SSE,160,0.0,0.0,92,0.00,,,0.63,weatherlink.com 1.10,2013-07-24 00:51:00,
2013-07-23 21:06:00,71.5,70.0,29.54,SSE,161,0.0,0.0,94,0.00,,,0.63,weatherlink.com 1.10,2013-07-24 01:06:00,
2013-07-23 21:21:00,70.9,70.0,29.54,SSE,160,0.0,0.0,95,0.00,,,0.63,weatherlink.com 1.10,2013-07-24 01:21:00,
2013-07-23 21:36:00,70.5,69.0,29.54,SSE,160,0.0,0.0,96,0.00,,,0.63,weatherlink.com 1.10,2013-07-24 01:36:00,
2013-07-23 21:51:00,70.0,69.0,29.54,SSE,160,0.0,0.0,97,0.00,,,0.63,weatherlink.com 1.10,2013-07-24 01:51:00,
2013-07-23 22:06:00,69.6,69.0,29.54,SSE,160,0.0,0.0,97,0.00,,,0.63,weatherlink.com 1.10,2013-07-24 02:06:00,
2013-07-23 22:21:00,69.2,69.0,29.54,SSE,160,0.0,0.0,98,0.00,,,0.63,weatherlink.com 1.10,2013-07-24 02:21:00,
2013-07-23 22:51:00,68.4,68.0,29.54,SSE,162,0.0,0.0,98,0.00,,,0.63,weatherlink.com 1.10,2013-07-24 02:51:00,
2013-07-23 23:21:00,67.8,67.0,29.55,SSE,160,0.0,0.0,98,0.00,,,0.63,weatherlink.com 1.10,2013-07-24 03:21:00,
2013-07-23 23:36:00,67.3,67.0,29.55,SSE,160,0.0,0.0,98,0.00,,,0.63,weatherlink.com 1.10,2013-07-24 03:36:00,
2013-07-23 23:51:00,67.2,67.0,29.56,SSE,160,0.0,0.0,99,0.00,,,0.63,weatherlink.com 1.10,2013-07-24 03:51:00,